KHHF

Details ICAO KHHF
Name HEMPHILL CO
Region United States
Timezone America/Chicago (UTC-6.0)
Plans Departing 2
Arriving 1
Stats Elevation 2,394 ft / 730 m (AMSL)
Location 35.895130° -100.403680°
Runways 2
Magnetic Variation 5.465° E
Sunrise 2017-12-16 13:46:50 UTC / 2017-12-16 07:46:50 Local
Sunset 2017-12-16 23:30:42 UTC / 2017-12-16 17:30:42 Local
Advertisement - Login to hide

Runways

ID Width Length Bearing (true) Bearing (mag) Surface Threshold Offset Overrun Length
04 75 ft / 23 m 5,001 ft / 1,524 m 43.87° 38.40° Asphalt 0 ft / 0 m 0 ft / 0 m
18 30 ft / 9 m 3,007 ft / 917 m 185.23° 179.76° Asphalt 94 ft / 29 m 0 ft / 0 m
22 75 ft / 23 m 5,001 ft / 1,524 m 223.87° 218.40° Asphalt 0 ft / 0 m 0 ft / 0 m
36 30 ft / 9 m 3,007 ft / 917 m 5.23° 359.76° Asphalt 0 ft / 0 m 0 ft / 0 m

Map

Weather


0- 5 10 15 20 25 30 35+ Temperature / ° C

Clouds and Precipitation
Forecast for 2017-12-16 18:00 UTC. Updated 15 minutes ago

Ground ~20,000 ft ~40,000 ft Winds

METAR

KHHF 161735Z AUTO 22014G21KT 10SM CLR 14/M05 A2983 RMK AO2 T01381046

TAF

Not found

Frequencies

Recorded 119.02 MHz AWOS 3
Approach 122.10 MHz FORT WORTH RDO
Unicom 122.90 MHz CTAF
Warning: Do not use this data for real-world aviation or navigation. No guarantee of current accuracy is given.